DW1735 Weather Reports


Display with metric or nautical units.
time (UTC)temp
F
wind
direction
speed
MPH
gust
MPH
rain 1hr
in
rain 24hr
in
rain mn
in
humidity
%
barometer
mb
20190424081606 48 50 4.0 9.0 0.00 0.00 0.00 78 1025.6
20190424080113 48 78 3.0 7.0 0.00 0.00 0.00 77 1025.6
20190424074540 48 49 2.0 7.0 0.00 0.00 0.00 77 1025.5
20190424073047 48 56 2.0 4.0 0.00 0.00 0.00 77 1025.3
20190424071539 48 52 0.0 6.0 0.00 0.00 0.00 77 1025.2
20190424070026 49 36 2.0 9.0 0.00 0.00 0.00 76 1025.1
20190424064620 49 55 2.0 8.0 0.00 0.00 0.00 76 1025.2
20190424063031 49 65 2.0 6.0 0.00 0.00 0.00 76 1025.0
20190424061524 49 65 1.0 4.0 0.00 0.00 0.00 76 1024.9
20190424060105 49 65 1.0 3.0 0.00 0.00 0.00 75 1024.9
20190424054525 49 63 0.0 5.0 0.00 0.00 0.00 76 1024.8
20190424053033 50 54 1.0 6.0 0.00 0.00 0.00 76 1024.6
20190424051531 50 39 2.0 6.0 0.00 0.00 0.00 76 1024.6
20190424050025 50 55 2.0 5.0 0.00 0.00 0.00 76 1024.4
20190424044518 50 42 1.0 5.0 0.00 0.00 0.00 76 1024.2
20190424043025 50 37 3.0 8.0 0.00 0.00 0.00 75 1024.1
20190424041510 50 51 3.0 9.0 0.00 0.00 0.00 74 1024.1
20190424040032 51 65 3.0 10.0 0.00 0.00 0.00 74 1023.8
20190424034505 51 45 5.0 11.0 0.00 0.00 0.00 73 1023.5
20190424033003 51 36 7.0 14.0 0.00 0.00 0.00 72 1023.5
20190424031728 52 41 6.0 11.0 0.00 0.00 0.00 72 1023.3
20190424030218 52 34 4.0 10.0 0.00 0.00 0.00 71 1023.2
20190424024702 53 38 4.0 9.0 0.00 0.00 0.00 70 1023.1
20190424023141 55 49 3.0 9.0 0.00 0.00 0.00 69 1023.1
20190424021712 56 41 2.0 6.0 0.00 0.00 0.00 66 1023.1
20190424020254 58 44 1.0 6.0 0.00 0.00 0.00 65 1023.0
20190424014712 59 258 2.0 4.0 0.00 0.01 0.00 63 1022.9
20190424013157 59 259 2.0 6.0 0.00 0.01 0.00 63 1022.9
20190424011659 59 259 1.0 6.0 0.00 0.01 0.00 64 1022.9
20190424010126 58 259 3.0 6.0 0.00 0.01 0.00 66 1023.0
20190424004633 58 257 3.0 7.0 0.00 0.06 0.00 66 1023.0
20190424003108 59 315 4.0 9.0 0.00 0.06 0.00 64 1023.1
20190424001712 59 289 3.0 8.0 0.00 0.06 0.00 67 1023.1
20190424000122 58 309 2.0 6.0 0.00 0.06 0.00 68 1023.2
20190423234626 58 309 5.0 9.0 0.00 0.09 0.00 67 1023.0
20190423233042 59 340 5.0 10.0 0.00 0.09 0.00 68 1023.0
20190423231543 59 292 5.0 10.0 0.00 0.09 0.00 68 1023.0
20190423230103 60 302 5.0 9.0 0.00 0.09 0.00 67 1023.1
20190423224551 59 292 4.0 10.0 0.00 0.11 0.00 69 1022.9
20190423223114 58 275 5.0 10.0 0.00 0.11 0.00 74 1023.0
20190423221539 58 266 3.0 8.0 0.00 0.11 0.00 72 1022.9
20190423220051 59 273 4.0 8.0 0.00 0.11 0.00 74 1022.9
20190423214553 59 238 5.0 12.0 0.00 0.11 0.00 74 1023.0
20190423213033 58 222 7.0 10.0 0.00 0.11 0.00 77 1023.0
20190423211530 58 246 3.0 8.0 0.00 0.11 0.00 76 1023.2
20190423210029 58 213 4.0 9.0 0.00 0.11 0.00 75 1023.0
20190423204510 58 265 4.0 13.0 0.00 0.11 0.00 74 1022.9
20190423203015 58 179 13.0 18.0 0.00 0.11 0.00 75 1022.8
20190423201504 58 198 9.0 17.0 0.00 0.11 0.00 76 1022.7
20190423200003 58 210 9.0 19.0 0.00 0.11 0.00 77 1022.7
20190423194629 57 195 8.0 15.0 0.00 0.11 0.00 80 1022.7
20190423193225 56 179 11.0 16.0 0.00 0.11 0.00 80 1022.8
20190423191744 57 197 11.0 17.0 0.00 0.11 0.00 78 1022.7
20190423190133 57 212 10.0 17.0 0.00 0.11 0.00 78 1022.7
20190423184658 57 203 10.0 14.0 0.00 0.11 0.00 79 1022.7
20190423183219 57 190 7.0 13.0 0.00 0.11 0.00 81 1022.8
20190423181638 57 186 7.0 11.0 0.00 0.11 0.00 82 1023.0
20190423180149 56 200 6.0 13.0 0.00 0.11 0.00 81 1023.1
20190423174625 57 200 7.0 17.0 0.00 0.11 0.00 82 1022.7
20190423173105 57 210 7.0 16.0 0.00 0.11 0.00 83 1022.8
20190423171647 57 192 11.0 23.0 0.00 0.11 0.00 83 1022.6
20190423170044 56 187 12.0 20.0 0.00 0.11 0.00 84 1022.5
20190423164552 55 200 8.0 15.0 0.00 0.11 0.00 87 1022.3
20190423163033 54 216 5.0 11.0 0.00 0.11 0.00 88 1022.8
20190423161527 53 206 6.0 14.0 0.00 0.11 0.00 89 1022.5
20190423160059 53 207 8.0 17.0 0.00 0.11 0.00 89 1022.7
20190423154541 53 191 11.0 17.0 0.00 0.11 0.00 90 1022.3
20190423153045 53 226 9.0 16.0 0.00 0.11 0.00 91 1022.2
20190423151520 52 201 7.0 16.0 0.00 0.11 0.00 92 1022.2
20190423150021 52 214 8.0 16.0 0.00 0.11 0.00 92 1022.3
20190423144523 52 216 8.0 17.0 0.00 0.11 0.00 93 1022.4
20190423143007 51 192 10.0 16.0 0.00 0.11 0.00 93 1021.8
20190423140312 51 180 10.0 15.0 0.00 0.11 0.00 94 1022.2
20190423134733 51 205 9.0 15.0 0.00 0.11 0.00 94 1022.4
20190423133129 51 196 7.0 16.0 0.00 0.11 0.00 94 1022.4
20190423131648 50 171 7.0 11.0 0.00 0.11 0.00 93 1022.4
20190423130144 50 192 6.0 12.0 0.00 0.11 0.00 93 1022.5
20190423124736 50 198 6.0 11.0 0.00 0.11 0.00 93 1022.5
20190423123202 50 182 5.0 11.0 0.00 0.11 0.00 93 1022.4
20190423121600 50 189 6.0 12.0 0.00 0.11 0.00 93 1022.3
20190423120200 50 220 5.0 9.0 0.00 0.11 0.00 93 1022.5
20190423114701 50 197 6.0 12.0 0.00 0.11 0.00 93 1022.4
20190423113051 50 192 6.0 10.0 0.00 0.11 0.00 93 1022.4
20190423111839 50 198 4.0 10.0 0.00 0.11 0.00 93 1022.3
20190423110057 50 209 6.0 15.0 0.00 0.11 0.00 93 1022.2
20190423104652 50 198 6.0 10.0 0.00 0.11 0.00 93 1022.2
20190423103128 51 191 7.0 10.0 0.00 0.11 0.00 93 1022.2
20190423101601 51 200 8.0 12.0 0.00 0.11 0.00 93 1022.4
20190423100031 50 206 10.0 18.0 0.00 0.11 0.00 94 1022.4
20190423094551 50 243 6.0 10.0 0.00 0.11 0.00 94 1022.8
20190423093028 50 233 3.0 11.0 0.00 0.11 0.00 94 1022.8
20190423091537 50 221 6.0 10.0 0.00 0.11 0.00 95 1023.1
20190423090016 50 228 7.0 11.0 0.00 0.11 0.00 95 1022.9
20190423084534 50 184 4.0 9.0 0.00 0.11 0.00 95 1022.6
20190423083034 50 217 5.0 9.0 0.00 0.11 0.00 95 1023.1